sensor_id;sensor_type;location;lat;lon;timestamp;pressure;altitude;pressure_sealevel;temperature;humidity
72558;BME280;60583;50.094;8.748;2023-03-31T00:01:28;99726.50;;;11.58;80.88
72558;BME280;60583;50.094;8.748;2023-03-31T00:03:54;99741.38;;;11.72;80.97
72558;BME280;60583;50.094;8.748;2023-03-31T00:06:29;99713.75;;;11.60;80.74
72558;BME280;60583;50.094;8.748;2023-03-31T00:08:55;99719.84;;;11.67;80.53
72558;BME280;60583;50.094;8.748;2023-03-31T00:11:27;99739.41;;;11.85;80.85
72558;BME280;60583;50.094;8.748;2023-03-31T00:13:53;99722.69;;;11.90;80.06
72558;BME280;60583;50.094;8.748;2023-03-31T00:16:18;99687.38;;;11.70;80.88
72558;BME280;60583;50.094;8.748;2023-03-31T00:18:44;99704.56;;;11.74;80.64
72558;BME280;60583;50.094;8.748;2023-03-31T00:21:14;99712.44;;;11.69;81.75
72558;BME280;60583;50.094;8.748;2023-03-31T00:23:57;99650.06;;;11.20;82.88
72558;BME280;60583;50.094;8.748;2023-03-31T00:26:23;99720.25;;;11.64;83.72
72558;BME280;60583;50.094;8.748;2023-03-31T00:28:51;99704.53;;;11.55;84.41
72558;BME280;60583;50.094;8.748;2023-03-31T00:31:17;99705.06;;;11.64;86.51
72558;BME280;60583;50.094;8.748;2023-03-31T00:33:42;99696.31;;;11.57;87.33
72558;BME280;60583;50.094;8.748;2023-03-31T00:36:08;99717.00;;;11.62;87.33
72558;BME280;60583;50.094;8.748;2023-03-31T00:38:34;99683.84;;;11.51;87.95
72558;BME280;60583;50.094;8.748;2023-03-31T00:41:00;99689.03;;;11.46;88.77
72558;BME280;60583;50.094;8.748;2023-03-31T00:43:30;99703.50;;;11.57;88.41
72558;BME280;60583;50.094;8.748;2023-03-31T00:46:12;99690.38;;;11.37;90.94
72558;BME280;60583;50.094;8.748;2023-03-31T00:48:59;99701.56;;;11.45;91.13
72558;BME280;60583;50.094;8.748;2023-03-31T00:51:27;99645.31;;;11.04;92.39
72558;BME280;60583;50.094;8.748;2023-03-31T00:53:56;99686.56;;;11.26;92.54
72558;BME280;60583;50.094;8.748;2023-03-31T00:56:29;99642.41;;;11.06;91.98
72558;BME280;60583;50.094;8.748;2023-03-31T00:58:57;99683.22;;;11.31;92.76
72558;BME280;60583;50.094;8.748;2023-03-31T01:04:01;99648.88;;;11.16;90.35
72558;BME280;60583;50.094;8.748;2023-03-31T01:06:27;99665.38;;;11.31;90.47
72558;BME280;60583;50.094;8.748;2023-03-31T01:08:55;99642.22;;;11.25;90.21
72558;BME280;60583;50.094;8.748;2023-03-31T01:11:23;99644.09;;;11.25;90.29
72558;BME280;60583;50.094;8.748;2023-03-31T01:13:52;99626.38;;;11.12;90.37
72558;BME280;60583;50.094;8.748;2023-03-31T01:16:21;99631.69;;;11.12;91.11
72558;BME280;60583;50.094;8.748;2023-03-31T01:18:47;99650.88;;;11.21;90.90
72558;BME280;60583;50.094;8.748;2023-03-31T01:21:33;99646.66;;;11.13;92.17
72558;BME280;60583;50.094;8.748;2023-03-31T01:24:31;99640.88;;;11.16;91.73
72558;BME280;60583;50.094;8.748;2023-03-31T01:29:42;99630.94;;;11.23;91.82
72558;BME280;60583;50.094;8.748;2023-03-31T01:44:09;99601.06;;;10.97;92.79
72558;BME280;60583;50.094;8.748;2023-03-31T01:47:15;99588.31;;;10.99;92.76
72558;BME280;60583;50.094;8.748;2023-03-31T01:52:25;99579.34;;;10.93;92.69
72558;BME280;60583;50.094;8.748;2023-03-31T01:55:05;99587.06;;;11.01;91.79
72558;BME280;60583;50.094;8.748;2023-03-31T01:57:35;99583.06;;;10.92;92.49
72558;BME280;60583;50.094;8.748;2023-03-31T02:00:05;99576.00;;;10.98;92.73
72558;BME280;60583;50.094;8.748;2023-03-31T02:02:56;99563.94;;;10.95;92.29
72558;BME280;60583;50.094;8.748;2023-03-31T02:05:29;99552.22;;;10.78;93.26
72558;BME280;60583;50.094;8.748;2023-03-31T02:08:05;99552.81;;;10.98;92.57
72558;BME280;60583;50.094;8.748;2023-03-31T02:10:33;99543.25;;;10.90;92.61
72558;BME280;60583;50.094;8.748;2023-03-31T02:13:01;99551.50;;;10.89;93.37
72558;BME280;60583;50.094;8.748;2023-03-31T02:15:32;99542.44;;;10.90;93.13
72558;BME280;60583;50.094;8.748;2023-03-31T02:18:01;99546.03;;;11.02;92.38
72558;BME280;60583;50.094;8.748;2023-03-31T02:20:32;99528.59;;;10.81;93.56
72558;BME280;60583;50.094;8.748;2023-03-31T02:22:58;99534.88;;;10.69;94.10
72558;BME280;60583;50.094;8.748;2023-03-31T02:25:29;99523.31;;;10.75;94.42
72558;BME280;60583;50.094;8.748;2023-03-31T02:28:04;99521.84;;;10.79;93.86
72558;BME280;60583;50.094;8.748;2023-03-31T02:33:34;99512.22;;;10.78;93.33
72558;BME280;60583;50.094;8.748;2023-03-31T02:36:00;99509.78;;;10.76;93.66
72558;BME280;60583;50.094;8.748;2023-03-31T02:38:27;99511.06;;;10.67;93.95
72558;BME280;60583;50.094;8.748;2023-03-31T02:40:52;99499.63;;;10.67;94.43
72558;BME280;60583;50.094;8.748;2023-03-31T02:43:18;99488.19;;;10.60;94.16
72558;BME280;60583;50.094;8.748;2023-03-31T02:45:46;99492.22;;;10.69;94.63
72558;BME280;60583;50.094;8.748;2023-03-31T02:48:16;99486.72;;;10.64;94.43
72558;BME280;60583;50.094;8.748;2023-03-31T03:14:47;99423.78;;;10.63;92.19
72558;BME280;60583;50.094;8.748;2023-03-31T03:17:23;99421.69;;;10.83;91.44
72558;BME280;60583;50.094;8.748;2023-03-31T03:19:55;99422.75;;;10.82;91.58
72558;BME280;60583;50.094;8.748;2023-03-31T03:22:23;99405.53;;;10.78;91.36
72558;BME280;60583;50.094;8.748;2023-03-31T03:24:49;99387.25;;;10.81;91.68
72558;BME280;60583;50.094;8.748;2023-03-31T03:27:15;99375.03;;;10.74;92.02
72558;BME280;60583;50.094;8.748;2023-03-31T03:29:41;99364.09;;;10.64;92.97
72558;BME280;60583;50.094;8.748;2023-03-31T03:32:08;99360.84;;;10.62;93.09
72558;BME280;60583;50.094;8.748;2023-03-31T03:34:34;99352.75;;;10.68;93.47
72558;BME280;60583;50.094;8.748;2023-03-31T03:36:59;99346.16;;;10.71;93.14
72558;BME280;60583;50.094;8.748;2023-03-31T03:39:25;99357.56;;;10.60;94.22
72558;BME280;60583;50.094;8.748;2023-03-31T03:41:50;99354.59;;;10.68;94.21
72558;BME280;60583;50.094;8.748;2023-03-31T03:44:16;99350.59;;;10.77;93.34
72558;BME280;60583;50.094;8.748;2023-03-31T03:46:42;99359.19;;;10.79;93.85
72558;BME280;60583;50.094;8.748;2023-03-31T03:49:08;99360.94;;;10.85;93.17
72558;BME280;60583;50.094;8.748;2023-03-31T03:51:33;99339.78;;;10.72;93.58
72558;BME280;60583;50.094;8.748;2023-03-31T03:53:59;99341.06;;;10.69;94.80
72558;BME280;60583;50.094;8.748;2023-03-31T03:56:24;99321.00;;;10.67;95.02
72558;BME280;60583;50.094;8.748;2023-03-31T03:58:50;99310.34;;;10.49;96.42
72558;BME280;60583;50.094;8.748;2023-03-31T04:01:16;99296.75;;;10.39;96.53
72558;BME280;60583;50.094;8.748;2023-03-31T04:03:42;99302.09;;;10.39;96.60
72558;BME280;60583;50.094;8.748;2023-03-31T04:06:08;99299.41;;;10.39;96.57
72558;BME280;60583;50.094;8.748;2023-03-31T04:08:34;99276.31;;;10.33;96.28
72558;BME280;60583;50.094;8.748;2023-03-31T04:10:59;99276.75;;;10.48;96.78
72558;BME280;60583;50.094;8.748;2023-03-31T04:13:25;99272.31;;;10.42;96.48
72558;BME280;60583;50.094;8.748;2023-03-31T04:15:51;99263.47;;;10.30;96.36
72558;BME280;60583;50.094;8.748;2023-03-31T04:18:16;99267.44;;;10.39;96.26
72558;BME280;60583;50.094;8.748;2023-03-31T04:20:52;99269.19;;;10.45;95.54
72558;BME280;60583;50.094;8.748;2023-03-31T04:23:34;99247.97;;;10.38;96.03
72558;BME280;60583;50.094;8.748;2023-03-31T04:26:15;99262.22;;;10.62;95.13
72558;BME280;60583;50.094;8.748;2023-03-31T04:28:41;99264.13;;;10.55;94.90
72558;BME280;60583;50.094;8.748;2023-03-31T04:31:12;99286.50;;;10.54;95.32
72558;BME280;60583;50.094;8.748;2023-03-31T04:33:53;99254.84;;;10.46;95.79
72558;BME280;60583;50.094;8.748;2023-03-31T04:36:19;99266.59;;;10.56;95.55
72558;BME280;60583;50.094;8.748;2023-03-31T04:38:47;99239.16;;;10.38;95.84
72558;BME280;60583;50.094;8.748;2023-03-31T04:41:17;99246.94;;;10.39;96.17
72558;BME280;60583;50.094;8.748;2023-03-31T04:43:43;99233.91;;;10.31;96.45
72558;BME280;60583;50.094;8.748;2023-03-31T04:46:09;99235.66;;;10.37;95.67
72558;BME280;60583;50.094;8.748;2023-03-31T04:48:34;99238.13;;;10.39;95.80
72558;BME280;60583;50.094;8.748;2023-03-31T04:51:00;99246.13;;;10.39;97.05
72558;BME280;60583;50.094;8.748;2023-03-31T04:53:26;99222.25;;;10.32;97.09
72558;BME280;60583;50.094;8.748;2023-03-31T04:55:51;99210.06;;;10.36;96.83
72558;BME280;60583;50.094;8.748;2023-03-31T04:58:17;99193.28;;;10.36;96.78
72558;BME280;60583;50.094;8.748;2023-03-31T05:00:43;99205.69;;;10.42;97.01
72558;BME280;60583;50.094;8.748;2023-03-31T05:03:08;99202.66;;;10.38;96.38
72558;BME280;60583;50.094;8.748;2023-03-31T05:05:35;99195.03;;;10.42;96.69
72558;BME280;60583;50.094;8.748;2023-03-31T05:08:01;99180.41;;;10.33;96.05
72558;BME280;60583;50.094;8.748;2023-03-31T05:10:26;99196.31;;;10.39;96.39
72558;BME280;60583;50.094;8.748;2023-03-31T05:12:55;99199.28;;;10.31;97.36
72558;BME280;60583;50.094;8.748;2023-03-31T05:15:20;99196.75;;;10.36;96.33
72558;BME280;60583;50.094;8.748;2023-03-31T05:17:46;99220.91;;;10.53;96.06
72558;BME280;60583;50.094;8.748;2023-03-31T05:20:12;99227.75;;;10.60;96.03
72558;BME280;60583;50.094;8.748;2023-03-31T05:22:39;99230.66;;;10.59;95.41
72558;BME280;60583;50.094;8.748;2023-03-31T05:25:06;99229.22;;;10.45;96.17
72558;BME280;60583;50.094;8.748;2023-03-31T05:27:33;99187.47;;;10.09;98.19
72558;BME280;60583;50.094;8.748;2023-03-31T05:30:01;99222.41;;;10.19;99.43
72558;BME280;60583;50.094;8.748;2023-03-31T05:32:26;99203.63;;;10.14;99.72
72558;BME280;60583;50.094;8.748;2023-03-31T05:34:53;99171.94;;;10.06;99.43
72558;BME280;60583;50.094;8.748;2023-03-31T05:37:22;99181.31;;;10.08;100.00
72558;BME280;60583;50.094;8.748;2023-03-31T05:39:48;99187.09;;;10.05;100.00
72558;BME280;60583;50.094;8.748;2023-03-31T05:42:14;99198.56;;;10.06;100.00
72558;BME280;60583;50.094;8.748;2023-03-31T05:44:40;99192.41;;;10.05;100.00
72558;BME280;60583;50.094;8.748;2023-03-31T05:47:05;99189.19;;;10.21;99.60
72558;BME280;60583;50.094;8.748;2023-03-31T05:49:31;99168.75;;;10.15;99.76
72558;BME280;60583;50.094;8.748;2023-03-31T05:51:56;99164.31;;;10.09;100.00
72558;BME280;60583;50.094;8.748;2023-03-31T05:54:21;99166.97;;;10.09;99.89
72558;BME280;60583;50.094;8.748;2023-03-31T05:56:47;99184.84;;;10.39;99.23
72558;BME280;60583;50.094;8.748;2023-03-31T05:59:13;99153.41;;;10.29;99.22
72558;BME280;60583;50.094;8.748;2023-03-31T06:01:39;99100.97;;;10.11;97.89
72558;BME280;60583;50.094;8.748;2023-03-31T06:04:05;99163.38;;;10.34;98.92
72558;BME280;60583;50.094;8.748;2023-03-31T06:06:30;99144.84;;;10.39;98.89
72558;BME280;60583;50.094;8.748;2023-03-31T06:08:57;99131.97;;;10.24;98.70
72558;BME280;60583;50.094;8.748;2023-03-31T06:11:22;99117.47;;;10.20;99.51
72558;BME280;60583;50.094;8.748;2023-03-31T06:13:48;99123.41;;;10.34;99.08
72558;BME280;60583;50.094;8.748;2023-03-31T06:16:15;99100.34;;;10.27;99.62
72558;BME280;60583;50.094;8.748;2023-03-31T06:18:41;99098.72;;;10.27;99.72
72558;BME280;60583;50.094;8.748;2023-03-31T06:21:10;99099.06;;;10.18;99.88
72558;BME280;60583;50.094;8.748;2023-03-31T06:23:36;99075.69;;;10.02;100.00
72558;BME280;60583;50.094;8.748;2023-03-31T06:26:04;99090.25;;;10.18;100.00
72558;BME280;60583;50.094;8.748;2023-03-31T06:28:31;99085.88;;;10.23;100.00
72558;BME280;60583;50.094;8.748;2023-03-31T06:31:10;99084.09;;;10.17;100.00
72558;BME280;60583;50.094;8.748;2023-03-31T06:33:40;99061.06;;;10.23;100.00
72558;BME280;60583;50.094;8.748;2023-03-31T06:36:07;99042.16;;;10.13;100.00
72558;BME280;60583;50.094;8.748;2023-03-31T06:38:34;99051.78;;;10.14;100.00
72558;BME280;60583;50.094;8.748;2023-03-31T06:41:01;99040.63;;;10.05;100.00
72558;BME280;60583;50.094;8.748;2023-03-31T06:43:27;99008.91;;;10.04;100.00
72558;BME280;60583;50.094;8.748;2023-03-31T06:45:53;99019.00;;;10.13;100.00
72558;BME280;60583;50.094;8.748;2023-03-31T06:48:19;99002.06;;;9.96;100.00
72558;BME280;60583;50.094;8.748;2023-03-31T06:50:44;98992.56;;;10.00;100.00
72558;BME280;60583;50.094;8.748;2023-03-31T06:53:10;98994.88;;;10.08;100.00
72558;BME280;60583;50.094;8.748;2023-03-31T06:55:36;98994.13;;;10.19;100.00
72558;BME280;60583;50.094;8.748;2023-03-31T06:58:03;98977.63;;;10.11;100.00
72558;BME280;60583;50.094;8.748;2023-03-31T07:00:31;98967.09;;;10.04;100.00
72558;BME280;60583;50.094;8.748;2023-03-31T07:02:57;98976.41;;;10.13;100.00
72558;BME280;60583;50.094;8.748;2023-03-31T07:05:22;98970.16;;;10.19;100.00
72558;BME280;60583;50.094;8.748;2023-03-31T07:07:53;98965.88;;;10.18;100.00
72558;BME280;60583;50.094;8.748;2023-03-31T07:10:19;98932.97;;;10.13;100.00
72558;BME280;60583;50.094;8.748;2023-03-31T07:12:45;98932.50;;;10.04;100.00
72558;BME280;60583;50.094;8.748;2023-03-31T07:15:11;98950.78;;;10.12;100.00
72558;BME280;60583;50.094;8.748;2023-03-31T07:17:36;98930.88;;;10.15;100.00
72558;BME280;60583;50.094;8.748;2023-03-31T07:20:07;98921.34;;;9.96;100.00
72558;BME280;60583;50.094;8.748;2023-03-31T07:22:40;98926.81;;;10.12;100.00
72558;BME280;60583;50.094;8.748;2023-03-31T07:25:07;98936.28;;;10.08;100.00
72558;BME280;60583;50.094;8.748;2023-03-31T07:27:34;98927.28;;;10.09;100.00
72558;BME280;60583;50.094;8.748;2023-03-31T07:30:00;98922.16;;;10.08;100.00
72558;BME280;60583;50.094;8.748;2023-03-31T07:32:26;98910.56;;;10.02;100.00
72558;BME280;60583;50.094;8.748;2023-03-31T07:34:54;98936.78;;;10.29;100.00
72558;BME280;60583;50.094;8.748;2023-03-31T07:37:20;98948.25;;;10.41;100.00
72558;BME280;60583;50.094;8.748;2023-03-31T07:39:47;98939.34;;;10.47;100.00
72558;BME280;60583;50.094;8.748;2023-03-31T07:42:12;98941.53;;;10.38;100.00
72558;BME280;60583;50.094;8.748;2023-03-31T07:44:38;98965.16;;;10.58;99.39
72558;BME280;60583;50.094;8.748;2023-03-31T07:47:03;98966.31;;;10.62;99.02
72558;BME280;60583;50.094;8.748;2023-03-31T07:49:32;98949.97;;;10.58;98.79
72558;BME280;60583;50.094;8.748;2023-03-31T07:51:58;98981.59;;;10.66;99.00
72558;BME280;60583;50.094;8.748;2023-03-31T07:54:24;98970.94;;;10.66;99.53
72558;BME280;60583;50.094;8.748;2023-03-31T07:56:49;98960.16;;;10.61;99.93
72558;BME280;60583;50.094;8.748;2023-03-31T07:59:15;98957.16;;;10.58;100.00
72558;BME280;60583;50.094;8.748;2023-03-31T08:01:40;98952.38;;;10.60;100.00
72558;BME280;60583;50.094;8.748;2023-03-31T08:04:06;98952.75;;;10.63;99.77
72558;BME280;60583;50.094;8.748;2023-03-31T08:06:31;98954.03;;;10.61;100.00
72558;BME280;60583;50.094;8.748;2023-03-31T08:09:00;98933.63;;;10.66;99.78
72558;BME280;60583;50.094;8.748;2023-03-31T08:11:25;98956.44;;;10.74;99.71
72558;BME280;60583;50.094;8.748;2023-03-31T08:13:51;98974.97;;;10.80;99.09
72558;BME280;60583;50.094;8.748;2023-03-31T08:16:17;98938.69;;;10.79;99.13
72558;BME280;60583;50.094;8.748;2023-03-31T08:18:42;98965.78;;;11.00;99.03
72558;BME280;60583;50.094;8.748;2023-03-31T08:21:08;98969.44;;;11.10;98.38
72558;BME280;60583;50.094;8.748;2023-03-31T08:23:36;98935.25;;;11.07;97.59
72558;BME280;60583;50.094;8.748;2023-03-31T08:26:16;98960.50;;;11.16;97.92
72558;BME280;60583;50.094;8.748;2023-03-31T08:28:42;98936.16;;;11.13;97.73
72558;BME280;60583;50.094;8.748;2023-03-31T08:31:08;98952.13;;;11.24;98.42
72558;BME280;60583;50.094;8.748;2023-03-31T08:33:35;98955.09;;;11.39;98.29
72558;BME280;60583;50.094;8.748;2023-03-31T08:36:06;98961.91;;;11.47;97.33
72558;BME280;60583;50.094;8.748;2023-03-31T08:38:41;98941.50;;;11.86;97.40
72558;BME280;60583;50.094;8.748;2023-03-31T08:41:33;98940.59;;;12.13;95.71
72558;BME280;60583;50.094;8.748;2023-03-31T08:44:06;98920.88;;;11.98;93.94
72558;BME280;60583;50.094;8.748;2023-03-31T08:46:36;98947.59;;;11.98;95.22
72558;BME280;60583;50.094;8.748;2023-03-31T08:49:14;98938.03;;;11.85;95.60
72558;BME280;60583;50.094;8.748;2023-03-31T08:51:46;98932.66;;;11.69;95.49
72558;BME280;60583;50.094;8.748;2023-03-31T08:56:51;98915.50;;;11.65;95.25
72558;BME280;60583;50.094;8.748;2023-03-31T09:01:49;98932.16;;;11.55;95.80
72558;BME280;60583;50.094;8.748;2023-03-31T09:12:20;98935.41;;;11.74;93.72
72558;BME280;60583;50.094;8.748;2023-03-31T09:15:07;98910.28;;;11.58;93.37
72558;BME280;60583;50.094;8.748;2023-03-31T09:17:43;98937.84;;;12.08;93.20
72558;BME280;60583;50.094;8.748;2023-03-31T09:20:25;98918.63;;;12.66;88.87
72558;BME280;60583;50.094;8.748;2023-03-31T09:22:59;98903.59;;;13.04;88.59
72558;BME280;60583;50.094;8.748;2023-03-31T09:25:30;98893.91;;;13.51;85.88
72558;BME280;60583;50.094;8.748;2023-03-31T09:27:56;98906.63;;;13.66;84.12
72558;BME280;60583;50.094;8.748;2023-03-31T09:30:27;98921.50;;;13.25;85.23
72558;BME280;60583;50.094;8.748;2023-03-31T09:35:37;98929.28;;;12.83;85.20
72558;BME280;60583;50.094;8.748;2023-03-31T09:38:03;98918.34;;;12.63;86.38
72558;BME280;60583;50.094;8.748;2023-03-31T09:40:28;98903.75;;;12.54;84.96
72558;BME280;60583;50.094;8.748;2023-03-31T09:42:59;98892.31;;;13.02;84.81
72558;BME280;60583;50.094;8.748;2023-03-31T09:45:26;98919.53;;;13.42;81.77
72558;BME280;60583;50.094;8.748;2023-03-31T09:47:57;98888.69;;;14.03;80.97
72558;BME280;60583;50.094;8.748;2023-03-31T09:50:24;98880.72;;;14.50;78.29
72558;BME280;60583;50.094;8.748;2023-03-31T09:52:55;98903.06;;;14.70;76.22
72558;BME280;60583;50.094;8.748;2023-03-31T09:55:28;98882.25;;;14.98;74.37
72558;BME280;60583;50.094;8.748;2023-03-31T09:57:58;98885.34;;;15.57;72.36
72558;BME280;60583;50.094;8.748;2023-03-31T10:00:24;98850.34;;;15.31;71.37
72558;BME280;60583;50.094;8.748;2023-03-31T10:02:56;98869.22;;;15.87;69.98
72558;BME280;60583;50.094;8.748;2023-03-31T10:05:30;98875.63;;;15.30;69.56
72558;BME280;60583;50.094;8.748;2023-03-31T10:13:18;98870.53;;;14.52;72.01
72558;BME280;60583;50.094;8.748;2023-03-31T10:15:45;98858.25;;;14.19;73.01
72558;BME280;60583;50.094;8.748;2023-03-31T10:18:15;98873.75;;;14.07;74.89
72558;BME280;60583;50.094;8.748;2023-03-31T10:20:49;98868.16;;;13.45;77.26
72558;BME280;60583;50.094;8.748;2023-03-31T10:25:46;98853.38;;;12.89;83.28
72558;BME280;60583;50.094;8.748;2023-03-31T10:28:16;98844.00;;;12.65;85.16
72558;BME280;60583;50.094;8.748;2023-03-31T10:30:56;98870.38;;;12.56;85.80
72558;BME280;60583;50.094;8.748;2023-03-31T10:33:27;98864.03;;;12.62;87.23
72558;BME280;60583;50.094;8.748;2023-03-31T10:35:55;98875.16;;;12.33;87.64
72558;BME280;60583;50.094;8.748;2023-03-31T10:38:34;98871.94;;;12.14;87.42
72558;BME280;60583;50.094;8.748;2023-03-31T10:41:00;98886.38;;;11.96;88.29
72558;BME280;60583;50.094;8.748;2023-03-31T10:43:29;98959.41;;;11.85;90.74
72558;BME280;60583;50.094;8.748;2023-03-31T10:45:58;98916.66;;;11.40;88.46
72558;BME280;60583;50.094;8.748;2023-03-31T10:51:19;98901.19;;;10.98;85.92
72558;BME280;60583;50.094;8.748;2023-03-31T10:53:48;98891.69;;;10.62;86.55
72558;BME280;60583;50.094;8.748;2023-03-31T10:56:34;98843.81;;;10.67;80.94
72558;BME280;60583;50.094;8.748;2023-03-31T10:59:19;98837.22;;;10.58;82.48
72558;BME280;60583;50.094;8.748;2023-03-31T11:02:08;98827.84;;;10.55;81.84
72558;BME280;60583;50.094;8.748;2023-03-31T11:04:45;98820.31;;;10.52;81.91
72558;BME280;60583;50.094;8.748;2023-03-31T11:07:40;98824.91;;;10.68;81.62
72558;BME280;60583;50.094;8.748;2023-03-31T11:13:04;98826.06;;;11.17;81.46
72558;BME280;60583;50.094;8.748;2023-03-31T11:21:02;98838.03;;;12.36;76.91
72558;BME280;60583;50.094;8.748;2023-03-31T11:23:43;98849.44;;;12.97;76.77
72558;BME280;60583;50.094;8.748;2023-03-31T11:26:23;98837.22;;;13.59;74.26
72558;BME280;60583;50.094;8.748;2023-03-31T11:29:23;98834.28;;;14.02;72.54
72558;BME280;60583;50.094;8.748;2023-03-31T11:34:41;98825.66;;;15.90;68.05
72558;BME280;60583;50.094;8.748;2023-03-31T11:37:20;98829.09;;;16.90;63.23
72558;BME280;60583;50.094;8.748;2023-03-31T11:42:49;98791.66;;;18.66;56.94
72558;BME280;60583;50.094;8.748;2023-03-31T11:45:18;98797.81;;;17.71;61.03
72558;BME280;60583;50.094;8.748;2023-03-31T11:47:49;98786.03;;;18.38;58.75
72558;BME280;60583;50.094;8.748;2023-03-31T11:50:21;98801.88;;;18.50;56.98
72558;BME280;60583;50.094;8.748;2023-03-31T11:53:01;98793.09;;;16.81;61.81
72558;BME280;60583;50.094;8.748;2023-03-31T11:55:30;98799.03;;;15.88;66.69
72558;BME280;60583;50.094;8.748;2023-03-31T11:58:07;98781.06;;;15.28;68.72
72558;BME280;60583;50.094;8.748;2023-03-31T12:00:55;98802.50;;;15.03;70.76
72558;BME280;60583;50.094;8.748;2023-03-31T12:06:03;98766.53;;;14.89;71.27
72558;BME280;60583;50.094;8.748;2023-03-31T12:08:38;98762.75;;;14.70;71.89
72558;BME280;60583;50.094;8.748;2023-03-31T12:11:14;98784.44;;;14.58;72.35
72558;BME280;60583;50.094;8.748;2023-03-31T12:16:52;98764.59;;;14.02;74.80
72558;BME280;60583;50.094;8.748;2023-03-31T12:22:06;98804.47;;;13.52;78.55
72558;BME280;60583;50.094;8.748;2023-03-31T12:24:37;98795.53;;;13.10;82.10
72558;BME280;60583;50.094;8.748;2023-03-31T12:27:18;98738.63;;;13.56;76.40
72558;BME280;60583;50.094;8.748;2023-03-31T12:39:00;98783.94;;;14.04;79.68
72558;BME280;60583;50.094;8.748;2023-03-31T12:47:15;98772.88;;;13.17;84.58
72558;BME280;60583;50.094;8.748;2023-03-31T12:52:31;98760.88;;;12.71;82.90
72558;BME280;60583;50.094;8.748;2023-03-31T12:57:47;98778.53;;;12.24;83.94
72558;BME280;60583;50.094;8.748;2023-03-31T13:02:45;98762.44;;;12.19;82.45
72558;BME280;60583;50.094;8.748;2023-03-31T13:05:39;98759.84;;;12.24;82.99
72558;BME280;60583;50.094;8.748;2023-03-31T13:08:08;98756.59;;;12.22;84.03
72558;BME280;60583;50.094;8.748;2023-03-31T13:10:56;98757.22;;;12.29;83.80
72558;BME280;60583;50.094;8.748;2023-03-31T13:13:23;98758.97;;;12.40;82.26
72558;BME280;60583;50.094;8.748;2023-03-31T13:15:52;98747.25;;;12.46;83.61
72558;BME280;60583;50.094;8.748;2023-03-31T13:18:19;98719.38;;;12.37;82.19
72558;BME280;60583;50.094;8.748;2023-03-31T13:20:46;98729.00;;;12.65;82.05
72558;BME280;60583;50.094;8.748;2023-03-31T13:23:23;98740.66;;;12.80;81.29
72558;BME280;60583;50.094;8.748;2023-03-31T13:25:57;98728.88;;;12.81;81.19
72558;BME280;60583;50.094;8.748;2023-03-31T13:28:31;98731.00;;;12.79;82.89
72558;BME280;60583;50.094;8.748;2023-03-31T13:31:02;98716.09;;;12.84;83.42
72558;BME280;60583;50.094;8.748;2023-03-31T13:36:12;98732.97;;;13.16;82.98
72558;BME280;60583;50.094;8.748;2023-03-31T13:44:38;98738.13;;;13.59;76.83
72558;BME280;60583;50.094;8.748;2023-03-31T13:47:38;98744.00;;;13.61;74.73
72558;BME280;60583;50.094;8.748;2023-03-31T13:50:34;98720.31;;;13.43;67.70
72558;BME280;60583;50.094;8.748;2023-03-31T13:56:00;98725.50;;;13.18;65.94
72558;BME280;60583;50.094;8.748;2023-03-31T14:04:03;98707.84;;;13.22;64.92
72558;BME280;60583;50.094;8.748;2023-03-31T14:06:54;98721.66;;;13.40;64.26
72558;BME280;60583;50.094;8.748;2023-03-31T14:09:32;98739.03;;;13.38;65.04
72558;BME280;60583;50.094;8.748;2023-03-31T14:12:00;98716.00;;;13.37;64.75
72558;BME280;60583;50.094;8.748;2023-03-31T14:14:25;98710.13;;;13.40;64.64
72558;BME280;60583;50.094;8.748;2023-03-31T14:16:57;98704.78;;;13.40;64.66
72558;BME280;60583;50.094;8.748;2023-03-31T14:20:01;98719.44;;;13.32;65.03
72558;BME280;60583;50.094;8.748;2023-03-31T14:31:08;98691.63;;;13.33;64.46
72558;BME280;60583;50.094;8.748;2023-03-31T14:33:47;98720.63;;;13.47;64.43
72558;BME280;60583;50.094;8.748;2023-03-31T14:38:51;98692.94;;;13.31;65.08
72558;BME280;60583;50.094;8.748;2023-03-31T14:41:18;98712.25;;;13.38;65.75
72558;BME280;60583;50.094;8.748;2023-03-31T14:43:49;98716.53;;;13.34;65.76
72558;BME280;60583;50.094;8.748;2023-03-31T14:46:19;98698.56;;;13.34;66.70
72558;BME280;60583;50.094;8.748;2023-03-31T14:48:48;98694.06;;;13.40;66.51
72558;BME280;60583;50.094;8.748;2023-03-31T14:51:24;98679.97;;;13.13;67.00
72558;BME280;60583;50.094;8.748;2023-03-31T14:53:57;98691.25;;;13.20;67.59
72558;BME280;60583;50.094;8.748;2023-03-31T14:56:31;98681.09;;;13.22;68.14
72558;BME280;60583;50.094;8.748;2023-03-31T14:58:59;98706.31;;;13.31;68.61
72558;BME280;60583;50.094;8.748;2023-03-31T15:01:29;98686.44;;;13.22;67.96
72558;BME280;60583;50.094;8.748;2023-03-31T15:04:12;98642.78;;;12.85;68.13
72558;BME280;60583;50.094;8.748;2023-03-31T15:06:40;98698.84;;;13.33;68.32
72558;BME280;60583;50.094;8.748;2023-03-31T15:09:10;98702.25;;;13.23;69.17
72558;BME280;60583;50.094;8.748;2023-03-31T15:11:38;98694.34;;;13.07;69.36
72558;BME280;60583;50.094;8.748;2023-03-31T15:14:04;98708.38;;;13.19;70.43
72558;BME280;60583;50.094;8.748;2023-03-31T15:16:42;98711.47;;;13.06;72.20
72558;BME280;60583;50.094;8.748;2023-03-31T15:19:26;98717.28;;;12.98;72.64
72558;BME280;60583;50.094;8.748;2023-03-31T15:21:57;98731.06;;;12.85;75.38
72558;BME280;60583;50.094;8.748;2023-03-31T15:24:29;98753.91;;;12.65;79.34
72558;BME280;60583;50.094;8.748;2023-03-31T15:27:05;98747.13;;;12.36;78.75
72558;BME280;60583;50.094;8.748;2023-03-31T15:29:37;98738.22;;;12.04;82.04
72558;BME280;60583;50.094;8.748;2023-03-31T15:32:12;98726.53;;;11.88;84.62
72558;BME280;60583;50.094;8.748;2023-03-31T15:34:39;98725.78;;;11.54;83.04
72558;BME280;60583;50.094;8.748;2023-03-31T15:37:08;98722.63;;;11.58;84.23
72558;BME280;60583;50.094;8.748;2023-03-31T15:39:35;98741.94;;;11.48;83.69
72558;BME280;60583;50.094;8.748;2023-03-31T15:42:04;98741.16;;;11.47;84.77
72558;BME280;60583;50.094;8.748;2023-03-31T15:44:45;98736.19;;;11.56;85.54